Time;durP1;ratioP1;P1;durP2;ratioP2;P2;SDS_P1;SDS_P2;PMS_P1;PMS_P2;Temp;Humidity;BMP_temperature;BMP_pressure;BME280_temperature;BME280_humidity;BME280_pressure;Samples;Min_cycle;Max_cycle;Signal;HPM_P1;HPM_P2
2022/11/12 00:00:22;;;;;;;12.60;8.60;;;4.00;99.90;;;;;;5053522;28;20186;-68
2022/11/12 00:02:47;;;;;;;14.17;8.90;;;4.00;99.90;;;;;;5053490;28;20175;-68
2022/11/12 00:05:13;;;;;;;12.93;8.87;;;3.90;99.90;;;;;;5052119;28;20275;-67
2022/11/12 00:07:39;;;;;;;9.27;8.23;;;3.90;99.90;;;;;;5053158;28;20193;-67
2022/11/12 00:10:05;;;;;;;14.10;8.77;;;3.90;99.90;;;;;;5053541;28;20178;-68
2022/11/12 00:12:31;;;;;;;12.17;9.13;;;3.90;99.90;;;;;;5052098;28;20183;-68
2022/11/12 00:14:57;;;;;;;11.13;8.60;;;3.90;99.90;;;;;;5053143;28;20174;-67
2022/11/12 00:17:23;;;;;;;13.40;8.90;;;3.90;99.90;;;;;;5054514;28;20762;-68
2022/11/12 00:19:48;;;;;;;10.43;9.13;;;3.80;99.90;;;;;;5056090;28;20582;-68
2022/11/12 00:22:14;;;;;;;10.23;8.10;;;3.70;99.90;;;;;;5057279;28;20253;-68
2022/11/12 00:24:40;;;;;;;14.37;8.47;;;3.60;99.90;;;;;;5057584;28;20155;-68
2022/11/12 00:27:06;;;;;;;10.03;8.63;;;3.60;99.90;;;;;;5057285;28;20679;-68
2022/11/12 00:29:31;;;;;;;12.10;8.43;;;3.60;99.90;;;;;;5055793;28;20178;-68
2022/11/12 00:31:57;;;;;;;10.20;9.07;;;3.60;99.90;;;;;;5057171;28;20170;-68
2022/11/12 00:34:23;;;;;;;11.50;8.97;;;3.60;99.90;;;;;;5057088;28;20296;-68
2022/11/12 00:36:49;;;;;;;12.03;8.70;;;3.60;99.90;;;;;;5055983;28;20263;-68
2022/11/12 00:39:14;;;;;;;11.40;9.00;;;3.60;99.90;;;;;;5057198;28;20174;-67
2022/11/12 00:41:40;;;;;;;10.77;8.90;;;3.50;99.90;;;;;;5057030;28;20643;-67
2022/11/12 00:44:06;;;;;;;13.93;8.97;;;3.40;99.90;;;;;;5056887;28;20262;-67
2022/11/12 00:46:31;;;;;;;10.70;8.23;;;3.30;99.90;;;;;;5055530;28;20269;-68
2022/11/12 00:48:57;;;;;;;10.83;8.73;;;3.30;99.90;;;;;;5056931;28;20179;-68
2022/11/12 00:51:23;;;;;;;11.67;8.90;;;3.30;99.90;;;;;;5056718;28;20231;-68
2022/11/12 00:53:49;;;;;;;11.20;9.23;;;3.20;99.90;;;;;;5056789;28;20175;-68
2022/11/12 00:56:15;;;;;;;13.70;8.63;;;3.30;99.90;;;;;;5056639;28;20257;-68
2022/11/12 00:58:41;;;;;;;11.97;9.00;;;3.20;99.90;;;;;;5056594;28;20166;-67
2022/11/12 01:01:12;;;;;;;11.30;8.80;;;3.10;99.90;;;;;;5056383;28;20182;-68
2022/11/12 01:03:39;;;;;;;10.47;8.10;;;3.10;99.90;;;;;;5056619;28;20654;-68
2022/11/12 01:06:11;;;;;;;9.83;8.83;;;3.10;99.90;;;;;;5056507;28;20631;-68
2022/11/12 01:08:37;;;;;;;9.67;8.23;;;3.10;99.90;;;;;;5056396;28;20285;-68
2022/11/12 01:11:07;;;;;;;11.17;8.73;;;3.20;99.90;;;;;;5056548;28;20175;-68
2022/11/12 01:13:33;;;;;;;13.97;8.67;;;3.20;99.90;;;;;;5056378;28;20181;-67
2022/11/12 01:16:07;;;;;;;11.67;9.03;;;3.30;99.90;;;;;;5056509;28;20274;-68
2022/11/12 01:18:33;;;;;;;10.33;8.73;;;3.30;99.90;;;;;;5054957;28;20286;-68
2022/11/12 01:21:01;;;;;;;11.20;9.23;;;3.30;99.90;;;;;;5056587;28;20194;-68
2022/11/12 01:23:27;;;;;;;15.27;9.47;;;3.10;99.90;;;;;;5057038;28;20568;-68
2022/11/12 01:25:53;;;;;;;14.63;8.70;;;3.00;99.90;;;;;;5056519;28;20602;-68
2022/11/12 01:28:19;;;;;;;10.33;8.83;;;3.00;99.90;;;;;;5055288;28;20599;-67
2022/11/12 01:30:44;;;;;;;10.30;9.07;;;3.10;99.90;;;;;;5055726;28;20182;-68
2022/11/12 01:33:10;;;;;;;11.73;9.10;;;3.00;99.90;;;;;;5056326;28;20178;-67
2022/11/12 01:35:36;;;;;;;11.83;8.93;;;3.00;99.90;;;;;;5054807;28;20212;-68
2022/11/12 01:38:02;;;;;;;9.57;8.57;;;3.00;99.90;;;;;;5054561;28;20750;-67
2022/11/12 01:40:27;;;;;;;11.77;9.27;;;3.10;99.90;;;;;;5056177;28;20182;-67
2022/11/12 01:42:53;;;;;;;12.87;9.20;;;3.10;99.90;;;;;;5056000;28;20268;-66
2022/11/12 01:45:21;;;;;;;9.97;8.33;;;3.00;99.90;;;;;;5056557;28;20296;-67
2022/11/12 01:47:50;;;;;;;15.17;9.73;;;3.00;99.90;;;;;;5056618;28;20225;-67
2022/11/12 01:50:32;;;;;;;11.13;8.87;;;3.00;99.90;;;;;;5056124;28;20178;-66
2022/11/12 01:53:07;;;;;;;12.33;9.30;;;3.00;99.90;;;;;;5056256;28;20246;-68
2022/11/12 01:55:36;;;;;;;10.67;9.40;;;3.10;99.90;;;;;;5056107;28;20194;-68
2022/11/12 01:58:12;;;;;;;12.67;8.97;;;3.00;99.90;;;;;;5055754;28;20301;-68
2022/11/12 02:00:40;;;;;;;11.73;9.80;;;3.00;99.90;;;;;;5055760;28;20182;-69
2022/11/12 02:03:11;;;;;;;11.77;8.60;;;2.80;99.90;;;;;;5055345;28;20190;-69
2022/11/12 02:05:39;;;;;;;14.33;9.53;;;2.70;99.90;;;;;;5055760;28;20212;-70
2022/11/12 02:08:06;;;;;;;11.63;9.77;;;2.70;99.90;;;;;;5055266;28;20205;-69
2022/11/12 02:10:33;;;;;;;10.70;9.00;;;2.60;99.90;;;;;;5055764;28;20178;-69
2022/11/12 02:15:44;;;;;;;11.60;9.90;;;2.60;99.90;;;;;;5055776;28;20645;-69
2022/11/12 02:18:10;;;;;;;11.30;9.70;;;2.60;99.90;;;;;;5055150;28;20202;-69
2022/11/12 02:20:37;;;;;;;14.17;9.37;;;2.70;99.90;;;;;;5055329;28;20181;-69
2022/11/12 02:23:05;;;;;;;11.47;8.50;;;2.60;99.90;;;;;;5055095;28;20175;-69
2022/11/12 02:25:31;;;;;;;9.70;8.70;;;2.60;99.90;;;;;;5053789;28;20170;-69
2022/11/12 02:27:59;;;;;;;9.97;8.97;;;2.60;99.90;;;;;;5053590;28;20233;-69
2022/11/12 02:30:38;;;;;;;9.80;8.80;;;2.60;99.90;;;;;;5055013;28;20177;-69
2022/11/12 02:33:04;;;;;;;12.37;9.40;;;2.60;99.90;;;;;;5055251;28;20192;-69
2022/11/12 02:35:30;;;;;;;12.27;9.33;;;2.70;99.90;;;;;;5053678;28;20197;-69
2022/11/12 02:37:56;;;;;;;10.60;9.43;;;2.80;99.90;;;;;;5054699;28;20210;-69
2022/11/12 02:40:23;;;;;;;11.20;9.30;;;2.80;99.90;;;;;;5054983;28;20232;-69
2022/11/12 02:42:48;;;;;;;10.80;9.70;;;2.80;99.90;;;;;;5055108;28;20216;-69
2022/11/12 02:45:15;;;;;;;12.67;8.77;;;2.80;99.90;;;;;;5054869;28;20171;-69
2022/11/12 02:47:41;;;;;;;13.53;9.43;;;2.80;99.90;;;;;;5054615;28;20213;-69
2022/11/12 02:50:08;;;;;;;10.30;9.27;;;2.90;99.90;;;;;;5053410;28;20186;-69
2022/11/12 02:52:34;;;;;;;13.67;9.83;;;2.90;99.90;;;;;;5054640;28;20182;-69
2022/11/12 02:55:00;;;;;;;11.10;9.60;;;3.00;99.90;;;;;;5053213;28;20327;-69
2022/11/12 02:57:26;;;;;;;14.60;10.57;;;2.90;99.90;;;;;;5054423;28;20202;-69
2022/11/12 02:59:52;;;;;;;11.97;9.93;;;2.80;99.90;;;;;;5054192;28;20171;-69
2022/11/12 03:02:18;;;;;;;18.53;9.13;;;2.80;99.90;;;;;;5053158;28;20178;-69
2022/11/12 03:04:43;;;;;;;12.07;9.47;;;2.70;99.90;;;;;;5053098;28;20635;-69
2022/11/12 03:07:09;;;;;;;11.00;9.43;;;2.70;99.90;;;;;;5054461;28;20198;-69
2022/11/12 03:09:35;;;;;;;12.67;9.23;;;2.60;99.90;;;;;;5054363;28;20635;-69
2022/11/12 03:12:00;;;;;;;12.30;9.73;;;2.60;99.90;;;;;;5054320;28;20197;-69
2022/11/12 03:14:26;;;;;;;12.67;9.07;;;2.60;99.90;;;;;;5052787;28;20209;-69
2022/11/12 03:16:52;;;;;;;10.90;9.30;;;2.60;99.90;;;;;;5054045;28;20254;-69
2022/11/12 03:19:17;;;;;;;12.63;9.50;;;2.50;99.90;;;;;;5054329;28;20189;-69
2022/11/12 03:21:43;;;;;;;14.23;9.97;;;2.50;99.90;;;;;;5053849;28;20177;-69
2022/11/12 03:24:09;;;;;;;12.07;9.80;;;2.40;99.90;;;;;;5052753;28;20171;-69
2022/11/12 03:26:35;;;;;;;10.50;9.10;;;2.30;99.90;;;;;;5054355;28;20224;-69
2022/11/12 03:29:00;;;;;;;10.73;9.63;;;2.20;99.90;;;;;;5052480;28;20174;-68
2022/11/12 03:31:26;;;;;;;13.17;9.70;;;2.20;99.90;;;;;;5053653;28;20213;-69
2022/11/12 03:33:52;;;;;;;10.87;9.30;;;2.30;99.90;;;;;;5053649;28;20255;-69
2022/11/12 03:36:17;;;;;;;10.50;9.27;;;2.30;99.90;;;;;;5052311;28;20317;-68
2022/11/12 03:38:43;;;;;;;12.27;9.57;;;2.40;99.90;;;;;;5052599;28;20178;-68
2022/11/12 03:41:09;;;;;;;13.30;9.33;;;2.40;99.90;;;;;;5052735;28;20174;-69
2022/11/12 03:43:34;;;;;;;13.40;9.33;;;2.50;99.90;;;;;;5052454;28;20602;-68
2022/11/12 03:46:00;;;;;;;10.67;9.47;;;2.40;99.90;;;;;;5054230;28;20170;-69
2022/11/12 03:48:26;;;;;;;12.00;9.60;;;2.30;99.90;;;;;;5053452;28;20236;-69
2022/11/12 03:50:57;;;;;;;9.80;8.80;;;2.20;99.90;;;;;;5053708;28;20167;-69
2022/11/12 03:53:22;;;;;;;10.67;9.57;;;2.20;99.90;;;;;;5053268;28;20163;-68
2022/11/12 03:55:48;;;;;;;12.87;9.10;;;2.20;99.90;;;;;;5053523;28;20709;-67
2022/11/12 03:58:14;;;;;;;10.47;8.43;;;2.20;99.90;;;;;;5053383;28;20206;-66
2022/11/12 04:00:40;;;;;;;10.27;9.20;;;2.20;99.90;;;;;;5053379;28;20186;-67
2022/11/12 04:03:05;;;;;;;10.37;9.23;;;2.20;99.90;;;;;;5053620;28;20682;-67
2022/11/12 04:08:36;;;;;;;12.87;8.87;;;2.20;99.90;;;;;;5053464;28;20201;-67
2022/11/12 04:11:11;;;;;;;11.70;9.57;;;2.20;99.90;;;;;;5053921;28;20604;-67
2022/11/12 04:13:38;;;;;;;10.73;9.33;;;2.20;99.90;;;;;;5051760;28;20178;-66
2022/11/12 04:21:54;;;;;;;12.33;9.50;;;2.20;99.90;;;;;;5053914;28;20240;-68
2022/11/12 04:27:06;;;;;;;11.07;9.07;;;2.20;99.90;;;;;;5053276;28;20201;-68
2022/11/12 04:32:17;;;;;;;11.83;9.20;;;2.40;99.90;;;;;;5053494;28;20174;-69
2022/11/12 04:34:43;;;;;;;11.80;9.80;;;2.30;99.90;;;;;;5053461;28;20171;-69
2022/11/12 04:37:08;;;;;;;9.60;8.60;;;2.20;99.90;;;;;;5052881;28;20206;-68
2022/11/12 04:39:34;;;;;;;10.83;8.93;;;2.10;99.90;;;;;;5051785;28;20216;-68
2022/11/12 04:45:01;;;;;;;11.73;9.47;;;2.20;99.90;;;;;;5053306;28;20162;-68
2022/11/12 04:47:28;;;;;;;10.70;9.00;;;2.20;99.90;;;;;;5052765;28;20197;-69
2022/11/12 04:49:54;;;;;;;9.57;8.57;;;2.20;99.90;;;;;;5052786;28;20236;-68
2022/11/12 04:52:20;;;;;;;11.03;8.50;;;2.10;99.90;;;;;;5053348;28;20658;-69
2022/11/12 04:54:45;;;;;;;10.50;8.90;;;2.10;99.90;;;;;;5053300;28;20175;-69
2022/11/12 04:57:11;;;;;;;10.93;8.97;;;2.10;99.90;;;;;;5051421;28;20578;-69
2022/11/12 04:59:37;;;;;;;11.70;8.90;;;2.10;99.90;;;;;;5051452;28;20181;-68
2022/11/12 05:02:03;;;;;;;13.47;9.47;;;2.00;99.90;;;;;;5052868;28;20214;-68
2022/11/12 05:04:28;;;;;;;14.13;9.40;;;1.90;99.90;;;;;;5056356;28;20170;-69
2022/11/12 05:06:58;;;;;;;10.50;8.60;;;1.90;99.90;;;;;;5056956;28;20194;-69
2022/11/12 05:09:26;;;;;;;12.23;9.87;;;1.90;99.90;;;;;;5056533;28;20175;-68
2022/11/12 05:11:54;;;;;;;10.67;8.90;;;1.90;99.90;;;;;;5056593;28;20179;-69
2022/11/12 05:14:20;;;;;;;10.00;9.10;;;2.00;99.90;;;;;;5056291;28;20158;-68
2022/11/12 05:16:47;;;;;;;11.50;8.97;;;2.00;99.90;;;;;;5056182;28;20280;-69
2022/11/12 05:19:13;;;;;;;12.57;9.13;;;2.00;99.90;;;;;;5056481;28;20171;-69
2022/11/12 05:24:24;;;;;;;12.23;8.20;;;1.90;99.90;;;;;;5056197;28;20599;-68
2022/11/12 05:26:50;;;;;;;10.10;8.57;;;1.90;99.90;;;;;;5056016;28;20194;-68
2022/11/12 05:29:16;;;;;;;10.40;9.07;;;1.90;99.90;;;;;;5056001;28;20206;-68
2022/11/12 05:31:42;;;;;;;11.40;9.37;;;1.80;99.90;;;;;;5055176;28;20189;-69
2022/11/12 05:34:08;;;;;;;15.77;9.90;;;1.70;99.90;;;;;;5054840;28;20554;-69
2022/11/12 05:36:34;;;;;;;9.57;8.67;;;1.60;99.90;;;;;;5056019;28;20178;-69
2022/11/12 05:38:59;;;;;;;13.77;9.00;;;1.70;99.90;;;;;;5054684;28;20190;-69
2022/11/12 05:41:26;;;;;;;10.97;9.30;;;1.70;99.90;;;;;;5056011;28;20171;-69
2022/11/12 05:43:51;;;;;;;10.33;9.23;;;1.70;99.90;;;;;;5054490;28;20178;-69
2022/11/12 05:46:17;;;;;;;11.63;8.97;;;1.80;99.90;;;;;;5055730;28;20187;-69
2022/11/12 05:48:43;;;;;;;9.90;8.43;;;1.90;99.90;;;;;;5056042;28;20174;-69
2022/11/12 05:51:09;;;;;;;11.03;9.70;;;1.90;99.90;;;;;;5054670;28;20209;-66
2022/11/12 05:53:35;;;;;;;10.37;8.87;;;1.90;99.90;;;;;;5055609;28;20201;-66
2022/11/12 05:56:02;;;;;;;10.90;8.93;;;1.80;99.90;;;;;;5055818;28;20174;-67
2022/11/12 05:58:28;;;;;;;12.50;9.97;;;1.80;99.90;;;;;;5055607;28;20202;-66
2022/11/12 06:00:54;;;;;;;11.10;8.97;;;1.80;99.90;;;;;;5055645;28;20224;-67
2022/11/12 06:03:19;;;;;;;11.20;9.77;;;1.80;99.90;;;;;;5055393;28;20182;-67
2022/11/12 06:05:45;;;;;;;12.30;9.30;;;1.80;99.90;;;;;;5054074;28;20312;-67
2022/11/12 06:08:11;;;;;;;9.23;8.33;;;1.90;99.90;;;;;;5048781;28;20672;-67
2022/11/12 06:10:36;;;;;;;9.73;8.73;;;1.80;99.90;;;;;;5035417;28;20253;-67
2022/11/12 06:13:02;;;;;;;9.70;8.30;;;1.80;99.90;;;;;;5035603;28;20624;-67
2022/11/12 06:15:28;;;;;;;12.93;9.83;;;1.80;99.90;;;;;;5034952;28;20246;-67
2022/11/12 06:17:53;;;;;;;12.23;8.97;;;1.70;99.90;;;;;;5034256;28;20292;-67
2022/11/12 06:20:21;;;;;;;11.03;9.37;;;1.70;99.90;;;;;;5035303;28;20171;-67
2022/11/12 06:22:47;;;;;;;11.10;9.13;;;1.70;99.90;;;;;;5033942;28;20191;-67
2022/11/12 06:25:12;;;;;;;10.63;8.80;;;1.80;99.90;;;;;;5035259;28;20632;-67
2022/11/12 06:27:38;;;;;;;14.93;9.07;;;1.80;99.90;;;;;;5035315;28;20201;-67
2022/11/12 06:30:06;;;;;;;10.63;8.60;;;1.80;99.90;;;;;;5033742;28;20171;-67
2022/11/12 06:32:32;;;;;;;9.60;8.17;;;1.70;99.90;;;;;;5035028;28;20175;-67
2022/11/12 06:34:57;;;;;;;9.10;8.10;;;1.70;99.90;;;;;;5033869;28;20237;-68
2022/11/12 06:37:23;;;;;;;9.57;8.57;;;1.70;99.90;;;;;;5033640;28;20203;-67
2022/11/12 06:39:49;;;;;;;10.87;8.77;;;1.70;99.90;;;;;;5054912;28;20210;-67
2022/11/12 06:42:15;;;;;;;9.30;8.37;;;1.60;99.90;;;;;;5053830;28;20174;-67
2022/11/12 06:44:41;;;;;;;12.23;8.47;;;1.70;99.90;;;;;;5054816;28;20187;-67
2022/11/12 06:47:07;;;;;;;12.23;8.87;;;1.70;99.90;;;;;;5053385;28;20293;-67
2022/11/12 06:49:33;;;;;;;18.27;9.37;;;1.70;99.90;;;;;;5055012;28;20183;-67
2022/11/12 06:51:59;;;;;;;11.30;8.43;;;1.60;99.90;;;;;;5055020;28;20189;-67
2022/11/12 06:54:25;;;;;;;10.50;8.47;;;1.60;99.90;;;;;;5055205;28;20198;-67
2022/11/12 06:56:51;;;;;;;9.67;8.67;;;1.50;99.90;;;;;;5054872;28;20199;-67
2022/11/12 06:59:16;;;;;;;11.10;8.90;;;1.50;99.90;;;;;;5054234;28;20228;-67
2022/11/12 07:01:42;;;;;;;10.23;9.00;;;1.40;99.90;;;;;;5054142;28;20216;-71
2022/11/12 07:04:09;;;;;;;9.47;8.43;;;1.40;99.90;;;;;;5054380;28;20174;-67
2022/11/12 07:06:36;;;;;;;10.60;9.10;;;1.50;99.90;;;;;;5054157;28;20190;-67
2022/11/12 07:09:03;;;;;;;11.17;9.40;;;1.40;99.90;;;;;;5054402;28;20614;-67
2022/11/12 07:11:29;;;;;;;10.43;9.43;;;1.50;99.90;;;;;;5054557;28;20693;-67
2022/11/12 07:13:54;;;;;;;11.03;8.83;;;1.60;99.90;;;;;;5053935;28;20178;-67
2022/11/12 07:16:21;;;;;;;12.63;9.43;;;1.60;99.90;;;;;;5052753;28;20179;-67
2022/11/12 07:18:47;;;;;;;11.87;9.27;;;1.50;99.90;;;;;;5053898;28;20202;-67
2022/11/12 07:21:20;;;;;;;12.57;9.67;;;1.50;99.90;;;;;;5054453;28;20705;-67
2022/11/12 07:23:46;;;;;;;11.13;9.93;;;1.50;99.90;;;;;;5053251;28;20289;-67
2022/11/12 07:26:14;;;;;;;11.40;10.23;;;1.50;99.90;;;;;;5053958;28;20257;-67
2022/11/12 07:28:39;;;;;;;11.13;10.03;;;1.60;99.90;;;;;;5053558;28;20209;-67
2022/11/12 07:31:08;;;;;;;12.40;10.37;;;1.70;99.90;;;;;;5054096;28;20167;-69
2022/11/12 07:33:34;;;;;;;12.97;9.97;;;1.80;99.90;;;;;;5054073;28;20186;-69
2022/11/12 07:36:06;;;;;;;15.73;10.43;;;1.80;99.90;;;;;;5053909;28;20179;-69
2022/11/12 07:38:33;;;;;;;17.73;10.63;;;1.80;99.90;;;;;;5052546;28;20202;-69
2022/11/12 07:41:01;;;;;;;14.77;11.30;;;1.80;99.90;;;;;;5053856;28;20197;-69
2022/11/12 07:43:29;;;;;;;11.83;10.63;;;1.90;99.90;;;;;;5053367;28;20180;-69
2022/11/12 07:46:12;;;;;;;13.17;11.33;;;1.90;99.90;;;;;;5052135;28;20202;-69
2022/11/12 07:48:39;;;;;;;13.13;11.53;;;1.90;99.90;;;;;;5053817;28;20191;-74
2022/11/12 07:51:26;;;;;;;16.23;11.47;;;1.90;99.90;;;;;;5053635;28;20175;-66
2022/11/12 07:53:54;;;;;;;10.47;9.37;;;2.00;99.90;;;;;;5052262;28;20186;-66
2022/11/12 07:56:21;;;;;;;9.10;8.20;;;2.00;99.90;;;;;;5053552;28;20171;-66
2022/11/12 07:58:49;;;;;;;10.53;8.97;;;2.00;99.90;;;;;;5053666;28;20690;-67
2022/11/12 08:01:39;;;;;;;11.83;9.30;;;2.10;99.90;;;;;;5053209;28;20189;-67
2022/11/12 08:04:08;;;;;;;12.97;9.67;;;2.10;99.90;;;;;;5053947;28;20159;-67
2022/11/12 08:06:34;;;;;;;10.20;9.03;;;2.20;99.90;;;;;;5052071;28;20178;-68
2022/11/12 08:09:03;;;;;;;9.83;8.67;;;2.20;99.90;;;;;;5053514;28;20174;-67
2022/11/12 08:11:29;;;;;;;17.10;13.30;;;2.30;99.90;;;;;;5052247;28;20591;-67
2022/11/12 08:13:55;;;;;;;20.93;14.93;;;2.30;99.90;;;;;;5053033;28;20166;-65
2022/11/12 08:16:21;;;;;;;19.90;15.03;;;2.30;99.90;;;;;;5053164;28;20216;-67
2022/11/12 08:18:47;;;;;;;17.50;13.70;;;2.40;99.90;;;;;;5053620;28;20205;-67
2022/11/12 08:21:15;;;;;;;18.03;14.43;;;2.50;99.90;;;;;;5053533;28;20247;-67
2022/11/12 08:23:41;;;;;;;20.57;15.87;;;2.60;99.90;;;;;;5052972;28;20189;-67
2022/11/12 08:26:10;;;;;;;20.37;14.57;;;2.70;99.90;;;;;;5053358;28;20643;-68
2022/11/12 08:28:36;;;;;;;19.13;14.43;;;2.80;99.90;;;;;;5053434;28;20212;-67
2022/11/12 08:31:04;;;;;;;18.93;14.10;;;2.90;99.90;;;;;;5051818;28;20183;-68
2022/11/12 08:33:30;;;;;;;16.17;12.53;;;3.00;99.90;;;;;;5053511;28;20670;-68
2022/11/12 08:35:56;;;;;;;17.73;12.73;;;3.20;99.90;;;;;;5053292;28;20230;-68
2022/11/12 08:38:22;;;;;;;14.80;11.60;;;3.30;99.90;;;;;;5053766;28;20206;-68
2022/11/12 08:40:48;;;;;;;14.30;12.37;;;3.40;99.90;;;;;;5055490;28;20170;-68
2022/11/12 08:43:14;;;;;;;12.83;10.83;;;3.60;99.90;;;;;;5055375;28;20693;-68
2022/11/12 08:45:40;;;;;;;12.23;10.93;;;3.70;99.90;;;;;;5055451;28;20211;-68
2022/11/12 08:48:14;;;;;;;11.73;10.53;;;3.80;99.90;;;;;;5056822;28;20198;-68
2022/11/12 08:50:40;;;;;;;12.03;10.80;;;3.90;99.90;;;;;;5057116;28;20197;-68
2022/11/12 08:53:09;;;;;;;12.00;10.67;;;4.00;99.90;;;;;;5056509;28;20249;-68
2022/11/12 08:55:35;;;;;;;11.73;10.00;;;4.10;99.90;;;;;;5055287;28;20236;-68
2022/11/12 08:58:02;;;;;;;12.23;10.10;;;4.30;99.90;;;;;;5056463;28;20199;-68
2022/11/12 09:00:39;;;;;;;15.23;10.30;;;4.30;99.90;;;;;;5055103;28;20194;-68
2022/11/12 09:03:06;;;;;;;15.10;11.30;;;4.40;99.90;;;;;;5056631;28;20170;-68
2022/11/12 09:05:35;;;;;;;12.43;10.87;;;4.50;99.90;;;;;;5056449;28;20181;-68
2022/11/12 09:08:05;;;;;;;13.53;10.60;;;4.50;99.90;;;;;;5056309;28;20576;-68
2022/11/12 09:10:32;;;;;;;15.63;10.83;;;4.60;99.90;;;;;;5056614;28;20174;-68
2022/11/12 09:12:57;;;;;;;15.40;11.33;;;4.70;99.90;;;;;;5056862;28;20178;-68
2022/11/12 09:15:26;;;;;;;12.23;10.87;;;4.80;99.90;;;;;;5055212;28;20232;-68
2022/11/12 09:18:00;;;;;;;12.23;10.47;;;5.00;99.90;;;;;;5054755;28;20698;-68
2022/11/12 09:20:28;;;;;;;11.10;9.70;;;5.10;99.90;;;;;;5056377;28;20173;-68
2022/11/12 09:23:01;;;;;;;11.37;9.90;;;5.30;99.90;;;;;;5056185;28;20216;-68
2022/11/12 09:25:30;;;;;;;12.67;10.43;;;5.40;99.90;;;;;;5056200;28;20242;-68
2022/11/12 09:28:08;;;;;;;12.67;9.93;;;5.50;99.90;;;;;;5056556;28;20195;-68
2022/11/12 09:30:36;;;;;;;13.97;11.07;;;5.60;99.90;;;;;;5054817;28;20166;-68
2022/11/12 09:33:03;;;;;;;14.20;10.77;;;5.80;99.90;;;;;;5054799;28;20186;-68
2022/11/12 09:35:29;;;;;;;14.27;10.43;;;5.90;99.90;;;;;;5054700;28;20174;-70
2022/11/12 09:37:57;;;;;;;12.13;10.63;;;6.10;99.90;;;;;;5054494;28;20293;-70
2022/11/12 09:40:46;;;;;;;12.30;10.53;;;6.20;99.90;;;;;;5054786;28;20183;-70
2022/11/12 09:43:19;;;;;;;13.00;10.37;;;6.30;99.90;;;;;;5054690;28;20578;-69
2022/11/12 09:45:53;;;;;;;14.03;10.07;;;6.50;99.90;;;;;;5055860;28;20175;-69
2022/11/12 09:48:28;;;;;;;10.13;9.13;;;6.70;99.90;;;;;;5055004;28;20209;-69
2022/11/12 09:51:11;;;;;;;13.20;9.80;;;6.90;99.90;;;;;;5054525;28;20178;-69
2022/11/12 09:54:00;;;;;;;13.80;10.17;;;7.20;99.90;;;;;;5054740;28;20178;-69
2022/11/12 09:56:29;;;;;;;12.73;9.67;;;7.40;99.90;;;;;;5055618;28;20174;-69
2022/11/12 09:58:55;;;;;;;11.13;9.93;;;7.70;99.90;;;;;;5054242;28;20182;-69
2022/11/12 10:01:56;;;;;;;14.50;9.37;;;7.90;99.90;;;;;;5055212;28;20190;-69
2022/11/12 10:05:09;;;;;;;12.43;9.33;;;8.10;99.90;;;;;;5055167;28;20240;-69
2022/11/12 10:08:05;;;;;;;11.33;8.93;;;8.20;99.90;;;;;;5057355;28;20209;-69
2022/11/12 10:10:51;;;;;;;10.03;8.40;;;8.30;99.90;;;;;;5075201;28;20281;-69
2022/11/12 10:13:24;;;;;;;10.63;8.77;;;8.50;99.90;;;;;;5074151;28;20658;-69
2022/11/12 10:16:43;;;;;;;10.27;9.10;;;8.70;99.90;;;;;;5073737;28;20182;-69
2022/11/12 10:19:19;;;;;;;18.00;9.00;;;8.90;99.90;;;;;;5075506;28;20163;-69
2022/11/12 10:22:08;;;;;;;13.77;8.53;;;9.00;99.90;;;;;;5073737;28;20286;-69
2022/11/12 10:24:55;;;;;;;9.90;8.03;;;9.20;99.90;;;;;;5075283;28;20182;-69
2022/11/12 10:27:48;;;;;;;9.17;8.00;;;9.40;99.90;;;;;;5074775;28;20367;-69
2022/11/12 10:30:23;;;;;;;8.87;7.80;;;9.60;99.90;;;;;;5073429;28;20190;-69
2022/11/12 10:32:53;;;;;;;12.17;8.40;;;9.80;99.90;;;;;;5074947;28;20158;-69
2022/11/12 10:35:35;;;;;;;9.00;8.10;;;10.00;99.90;;;;;;5073545;28;20180;-69
2022/11/12 10:38:05;;;;;;;12.40;8.47;;;10.20;99.90;;;;;;5051864;28;20218;-69
2022/11/12 10:40:41;;;;;;;10.97;7.80;;;10.40;99.90;;;;;;5054813;28;20167;-69
2022/11/12 10:43:17;;;;;;;9.30;7.43;;;10.60;99.90;;;;;;5053501;28;20182;-69
2022/11/12 10:45:48;;;;;;;8.93;7.60;;;10.70;99.90;;;;;;5054536;28;20178;-69
2022/11/12 10:48:32;;;;;;;9.60;7.67;;;10.80;99.90;;;;;;5037193;28;20202;-69
2022/11/12 10:50:59;;;;;;;8.88;7.65;;;11.00;99.90;;;;;;5053239;28;20639;-69
2022/11/12 10:53:39;;;;;;;7.78;6.97;;;11.10;99.90;;;;;;5054466;28;20170;-69
2022/11/12 10:56:35;;;;;;;7.33;6.60;;;11.20;99.90;;;;;;5053193;28;20183;-69
2022/11/12 10:59:18;;;;;;;6.68;6.00;;;11.30;99.90;;;;;;5053062;28;20196;-69
2022/11/12 11:01:52;;;;;;;7.93;6.28;;;11.40;99.90;;;;;;5053928;28;20224;-69
2022/11/12 11:04:41;;;;;;;7.85;6.75;;;11.50;99.90;;;;;;5054838;28;20159;-69
2022/11/12 11:07:24;;;;;;;7.65;5.93;;;11.70;99.90;;;;;;5054156;28;20199;-69
2022/11/12 11:10:02;;;;;;;8.20;6.50;;;11.90;99.90;;;;;;5033002;28;20175;-69
2022/11/12 11:12:33;;;;;;;7.22;6.35;;;12.00;99.90;;;;;;5034277;28;20178;-69
2022/11/12 11:15:22;;;;;;;6.90;5.80;;;12.20;99.90;;;;;;5032451;28;20271;-69
2022/11/12 11:17:48;;;;;;;6.88;5.70;;;12.40;99.90;;;;;;5032941;28;20571;-69
2022/11/12 11:20:47;;;;;;;9.23;5.78;;;12.60;99.90;;;;;;5032681;28;20182;-69
2022/11/12 11:23:25;;;;;;;6.18;5.57;;;12.70;99.90;;;;;;5037371;28;20554;-69
2022/11/12 11:25:57;;;;;;;6.05;5.45;;;13.10;99.90;;;;;;5034286;28;20230;-69
2022/11/12 11:28:43;;;;;;;8.38;6.00;;;13.30;99.90;;;;;;5034005;28;20232;-70
2022/11/12 11:31:43;;;;;;;8.30;5.63;;;13.30;99.90;;;;;;5034438;28;20543;-70
2022/11/12 11:34:09;;;;;;;7.45;5.78;;;13.40;99.90;;;;;;5032594;28;20194;-69
2022/11/12 11:37:21;;;;;;;7.95;5.53;;;13.60;99.90;;;;;;5032437;28;20648;-70
2022/11/12 11:40:18;;;;;;;7.93;5.50;;;13.80;99.90;;;;;;5071960;28;20198;-69
2022/11/12 11:43:06;;;;;;;5.95;5.35;;;14.00;99.90;;;;;;5072803;28;20251;-69
2022/11/12 11:45:50;;;;;;;6.38;4.90;;;14.10;99.90;;;;;;5072345;28;20550;-69
2022/11/12 11:48:39;;;;;;;8.73;5.45;;;14.30;99.90;;;;;;5072439;28;20580;-69
2022/11/12 11:51:20;;;;;;;5.60;4.80;;;14.60;99.90;;;;;;5072250;28;20208;-70
2022/11/12 11:54:06;;;;;;;8.68;4.68;;;14.80;99.90;;;;;;5072311;28;20537;-70
2022/11/12 11:56:59;;;;;;;6.00;4.95;;;15.00;99.90;;;;;;5072512;28;20707;-69
2022/11/12 11:59:49;;;;;;;5.43;4.57;;;15.20;99.90;;;;;;5069931;28;20190;-70
2022/11/12 12:02:41;;;;;;;6.97;4.70;;;15.20;99.90;;;;;;5073342;28;20560;-70
2022/11/12 12:05:20;;;;;;;8.85;4.53;;;15.40;99.90;;;;;;5072254;28;20666;-70
2022/11/12 12:08:27;;;;;;;5.95;4.35;;;15.40;99.90;;;;;;5068654;28;20209;-69
2022/11/12 12:11:17;;;;;;;5.10;4.55;;;15.50;99.90;;;;;;5051351;28;20247;-69
2022/11/12 12:14:02;;;;;;;4.97;4.40;;;15.30;99.90;;;;;;5053043;28;20186;-69
2022/11/12 12:16:55;;;;;;;5.45;4.10;;;15.30;99.90;;;;;;5053280;28;20210;-70
2022/11/12 12:19:42;;;;;;;6.10;4.03;;;15.30;99.90;;;;;;5052102;28;20178;-70
2022/11/12 12:22:20;;;;;;;6.07;4.13;;;15.30;99.90;;;;;;5052340;28;20192;-69
2022/11/12 12:24:57;;;;;;;5.72;4.20;;;15.30;99.90;;;;;;5053266;28;20660;-70
2022/11/12 12:27:55;;;;;;;4.47;4.07;;;15.30;99.90;;;;;;5051972;28;20296;-70
2022/11/12 12:30:28;;;;;;;4.45;3.90;;;15.40;99.90;;;;;;5050033;28;20662;-70
2022/11/12 12:33:09;;;;;;;4.68;3.80;;;15.50;99.90;;;;;;5051798;28;20293;-70
2022/11/12 12:36:07;;;;;;;4.88;3.95;;;15.60;99.90;;;;;;5052020;28;20218;-70
2022/11/12 12:39:02;;;;;;;4.97;3.60;;;15.70;99.90;;;;;;5050620;28;20688;-69
2022/11/12 12:41:50;;;;;;;5.38;4.18;;;15.70;99.90;;;;;;5050621;28;20212;-70
2022/11/12 12:44:19;;;;;;;4.30;3.90;;;15.80;99.90;;;;;;5051632;28;20274;-70
2022/11/12 12:46:52;;;;;;;6.75;4.55;;;15.90;99.90;;;;;;5051450;28;20194;-70
2022/11/12 12:49:27;;;;;;;5.43;4.32;;;15.90;99.90;;;;;;5051922;28;20194;-70
2022/11/12 12:51:57;;;;;;;4.38;3.70;;;15.90;99.90;;;;;;5051883;28;20162;-70
2022/11/12 12:54:34;;;;;;;3.70;3.40;;;15.90;99.90;;;;;;5052893;28;20182;-69
2022/11/12 12:57:03;;;;;;;4.25;3.83;;;15.80;99.90;;;;;;5053339;28;20202;-70
2022/11/12 12:59:34;;;;;;;4.30;3.40;;;15.80;99.90;;;;;;5052765;28;20666;-69
2022/11/12 13:02:03;;;;;;;3.85;3.45;;;15.70;99.90;;;;;;5051792;28;20575;-69
2022/11/12 13:04:55;;;;;;;4.38;3.33;;;15.60;99.90;;;;;;5053696;28;20598;-69
2022/11/12 13:07:37;;;;;;;3.35;3.03;;;15.50;99.90;;;;;;5053335;28;20201;-70
2022/11/12 13:10:40;;;;;;;4.40;3.40;;;15.40;99.90;;;;;;5052756;28;20186;-69
2022/11/12 13:13:16;;;;;;;4.00;3.30;;;15.30;99.90;;;;;;5055013;28;20183;-70
2022/11/12 13:15:49;;;;;;;4.10;3.70;;;15.30;99.90;;;;;;5053642;28;20182;-69
2022/11/12 13:18:37;;;;;;;4.15;3.72;;;15.20;99.90;;;;;;5053147;28;20217;-70
2022/11/12 13:21:17;;;;;;;3.70;3.40;;;15.20;99.90;;;;;;5052967;28;20182;-70
2022/11/12 13:24:05;;;;;;;4.70;3.60;;;15.10;99.90;;;;;;5051504;28;20300;-70
2022/11/12 13:26:55;;;;;;;4.53;3.72;;;15.00;99.90;;;;;;5054576;28;20655;-68
2022/11/12 13:29:28;;;;;;;6.25;4.57;;;15.00;99.90;;;;;;5054793;28;20701;-70